createdAt,value
2019-02-11T00:01:54.083Z,7.77
2019-02-11T00:07:59.983Z,4.43
2019-02-11T00:14:05.819Z,3.63
2019-02-11T00:20:11.744Z,3.87
2019-02-11T00:26:17.598Z,3.47
2019-02-11T00:32:26.482Z,3.23
2019-02-11T00:38:32.345Z,2.93
2019-02-11T00:44:38.535Z,3.00
2019-02-11T00:50:44.265Z,3.83
2019-02-11T00:56:49.996Z,3.80
2019-02-11T01:02:56.124Z,3.50
2019-02-11T01:09:01.946Z,5.50
2019-02-11T01:15:08.752Z,3.70
2019-02-11T01:21:15.020Z,3.53
2019-02-11T01:27:20.988Z,2.87
2019-02-11T01:33:26.859Z,2.90
2019-02-11T01:39:32.620Z,2.77
2019-02-11T01:45:38.523Z,3.07
2019-02-11T01:51:44.605Z,5.13
2019-02-11T01:57:50.385Z,3.80
2019-02-11T02:03:56.190Z,4.13
2019-02-11T02:10:02.083Z,7.40
2019-02-11T02:16:08.000Z,10.10
2019-02-11T02:22:13.836Z,5.80
2019-02-11T02:28:19.777Z,7.07
2019-02-11T02:34:26.186Z,7.90
2019-02-11T02:40:32.095Z,6.80
2019-02-11T02:46:37.918Z,7.33
2019-02-11T02:52:43.758Z,9.40
2019-02-11T02:58:49.792Z,6.20
2019-02-11T03:04:55.921Z,7.27
2019-02-11T03:11:01.778Z,10.87
2019-02-11T03:17:07.685Z,9.33
2019-02-11T03:23:13.445Z,10.63
2019-02-11T03:29:19.198Z,11.27
2019-02-11T03:35:24.985Z,13.63
2019-02-11T03:41:31.227Z,10.63
2019-02-11T03:47:37.475Z,10.67
2019-02-11T03:53:43.327Z,8.53
2019-02-11T03:59:49.514Z,7.10
2019-02-11T04:05:55.391Z,8.80
2019-02-11T04:12:01.325Z,7.43
2019-02-11T04:18:07.123Z,7.67
2019-02-11T04:24:13.234Z,11.30
2019-02-11T04:30:20.033Z,10.07
2019-02-11T04:36:25.738Z,12.07
2019-02-11T04:42:31.873Z,6.93
2019-02-11T04:48:37.927Z,7.57
2019-02-11T04:54:44.100Z,4.87
2019-02-11T05:00:49.953Z,2.60
2019-02-11T05:06:55.787Z,4.30
2019-02-11T05:13:01.518Z,3.57
2019-02-11T05:19:07.239Z,6.13
2019-02-11T05:25:13.265Z,2.90
2019-02-11T05:31:19.380Z,4.30
2019-02-11T05:37:25.235Z,6.17
2019-02-11T05:43:31.168Z,8.33
2019-02-11T05:49:37.099Z,11.83
2019-02-11T05:55:42.889Z,17.80
2019-02-11T06:01:49.063Z,18.10
2019-02-11T06:07:55.110Z,17.70
2019-02-11T06:14:00.969Z,28.33
2019-02-11T06:20:07.715Z,14.57
2019-02-11T06:26:13.507Z,15.43
2019-02-11T06:32:19.727Z,26.50
2019-02-11T06:38:25.621Z,15.83
2019-02-11T06:44:31.625Z,16.97
2019-02-11T06:50:37.806Z,15.13
2019-02-11T06:56:43.665Z,12.97
2019-02-11T07:02:49.553Z,18.43
2019-02-11T07:08:55.538Z,13.83
2019-02-11T07:15:01.355Z,20.10
2019-02-11T07:21:07.342Z,12.47
2019-02-11T07:27:13.459Z,11.07
2019-02-11T07:33:19.531Z,16.67
2019-02-11T07:39:31.428Z,20.70
2019-02-11T07:45:42.770Z,25.13
2019-02-11T07:51:48.752Z,11.07
2019-02-11T07:57:55.008Z,16.63
2019-02-11T08:04:00.757Z,12.93
2019-02-11T08:10:07.315Z,14.67
2019-02-11T08:16:13.032Z,15.50
2019-02-11T08:22:18.873Z,17.63
2019-02-11T08:28:24.925Z,13.33
2019-02-11T08:34:30.867Z,21.37
2019-02-11T08:40:36.884Z,13.53
2019-02-11T08:46:43.007Z,12.27
2019-02-11T08:52:49.704Z,13.93
2019-02-11T08:58:55.582Z,19.33
2019-02-11T09:05:01.642Z,16.37
2019-02-11T09:11:07.591Z,16.47
2019-02-11T09:17:32.432Z,14.00
2019-02-11T09:23:38.516Z,16.47
2019-02-11T09:29:44.355Z,16.60
2019-02-11T09:35:51.147Z,17.43
2019-02-11T09:41:57.070Z,11.90
2019-02-11T09:48:02.857Z,19.33
2019-02-11T09:54:08.863Z,15.63
2019-02-11T10:00:14.829Z,16.60
2019-02-11T10:06:20.746Z,17.07
2019-02-11T10:12:26.789Z,12.07
2019-02-11T10:18:32.667Z,13.90
2019-02-11T10:24:38.546Z,11.47
2019-02-11T10:30:44.548Z,15.23
2019-02-11T10:36:50.424Z,14.60
2019-02-11T10:42:56.411Z,14.90
2019-02-11T10:49:02.365Z,16.93
2019-02-11T10:55:10.892Z,18.07
2019-02-11T11:01:16.686Z,12.63
2019-02-11T11:07:22.665Z,14.87
2019-02-11T11:13:28.853Z,14.83
2019-02-11T11:19:34.790Z,13.50
2019-02-11T11:25:40.994Z,16.77
2019-02-11T11:31:47.251Z,11.03
2019-02-11T11:37:53.211Z,9.13
2019-02-11T11:43:59.339Z,7.10
2019-02-11T11:50:05.758Z,6.43
2019-02-11T11:56:11.511Z,10.23
2019-02-11T12:02:17.647Z,13.53
2019-02-11T12:08:23.634Z,6.53
2019-02-11T12:14:30.853Z,10.67
2019-02-11T12:20:37.212Z,15.23
2019-02-11T12:26:43.308Z,9.57
2019-02-11T12:32:49.358Z,10.20
2019-02-11T12:38:56.945Z,12.07
2019-02-11T12:45:03.295Z,7.47
2019-02-11T12:51:09.155Z,4.10
2019-02-11T12:57:15.034Z,6.27
2019-02-11T13:03:21.017Z,9.43
2019-02-11T13:09:27.011Z,4.53
2019-02-11T13:15:57.408Z,11.80
2019-02-11T13:21:41.076Z,12.53
2019-02-11T13:27:47.088Z,7.93
2019-02-11T13:33:52.903Z,6.97
2019-02-11T13:39:58.870Z,9.37
2019-02-11T13:46:05.114Z,10.13
2019-02-11T13:52:11.173Z,10.37
2019-02-11T13:58:17.126Z,7.40
2019-02-11T14:04:22.925Z,7.47
2019-02-11T14:10:28.872Z,11.43
2019-02-11T14:16:34.581Z,8.83
2019-02-11T14:22:40.450Z,11.47
2019-02-11T14:28:49.502Z,15.07
2019-02-11T14:34:53.896Z,13.33
2019-02-11T14:40:59.937Z,12.80
2019-02-11T14:47:05.993Z,10.10
2019-02-11T14:53:11.943Z,18.07
2019-02-11T14:59:17.981Z,14.07
2019-02-11T15:05:23.791Z,18.30
2019-02-11T15:11:29.707Z,9.20
2019-02-11T15:17:35.708Z,17.53
2019-02-11T15:23:41.480Z,11.10
2019-02-11T15:29:47.358Z,6.43
2019-02-11T15:35:53.638Z,8.27
2019-02-11T15:41:59.434Z,9.33
2019-02-11T15:48:05.332Z,7.50
2019-02-11T15:54:11.068Z,11.67
2019-02-11T16:00:19.478Z,7.33
2019-02-11T16:06:25.286Z,11.10
2019-02-11T16:12:31.037Z,13.03
2019-02-11T16:18:36.851Z,12.23
2019-02-11T16:24:42.743Z,11.33
2019-02-11T16:30:48.690Z,6.47
2019-02-11T16:36:55.279Z,6.67
2019-02-11T16:43:01.126Z,9.47
2019-02-11T16:49:07.174Z,7.23
2019-02-11T16:55:13.081Z,9.30
2019-02-11T17:01:19.123Z,10.30
2019-02-11T17:07:24.900Z,12.60
2019-02-11T17:13:30.696Z,15.87
2019-02-11T17:19:36.525Z,6.17
2019-02-11T17:25:42.369Z,5.83
2019-02-11T17:31:48.255Z,8.73
2019-02-11T17:37:54.134Z,7.83
2019-02-11T17:43:59.893Z,6.37
2019-02-11T17:50:05.987Z,6.00
2019-02-11T17:56:11.942Z,12.87
2019-02-11T18:02:18.039Z,5.80
2019-02-11T18:08:23.918Z,6.20
2019-02-11T18:14:29.639Z,6.70
2019-02-11T18:20:35.600Z,11.63
2019-02-11T18:26:45.410Z,10.27
2019-02-11T18:32:51.217Z,9.37
2019-02-11T18:38:57.090Z,15.23
2019-02-11T18:45:02.872Z,8.73
2019-02-11T18:51:08.802Z,7.60
2019-02-11T18:57:14.727Z,10.83
2019-02-11T19:03:20.719Z,11.83
2019-02-11T19:09:26.615Z,11.70
2019-02-11T19:15:32.435Z,14.40
2019-02-11T19:21:38.276Z,15.47
2019-02-11T19:27:44.376Z,12.10
2019-02-11T19:33:50.479Z,12.90
2019-02-11T19:39:56.310Z,14.33
2019-02-11T19:46:02.548Z,17.43
2019-02-11T19:52:08.749Z,17.33
2019-02-11T19:58:14.469Z,18.40
2019-02-11T20:04:20.401Z,17.47
2019-02-11T20:10:26.521Z,15.00
2019-02-11T20:16:32.308Z,19.53
2019-02-11T20:22:38.436Z,13.73
2019-02-11T20:28:44.273Z,15.73
2019-02-11T20:34:50.563Z,24.50
2019-02-11T20:40:56.466Z,18.30
2019-02-11T20:47:02.338Z,17.43
2019-02-11T20:53:08.239Z,19.07
2019-02-11T20:59:14.110Z,18.53
2019-02-11T21:05:22.900Z,20.43
2019-02-11T21:11:29.551Z,8.10
2019-02-11T21:17:35.499Z,10.27
2019-02-11T21:23:41.784Z,20.17
2019-02-11T21:29:47.568Z,16.77
2019-02-11T21:35:53.467Z,12.27
2019-02-11T21:42:01.161Z,18.13
2019-02-11T21:48:07.304Z,18.00
2019-02-11T21:54:13.261Z,16.97
2019-02-11T22:00:20.305Z,16.53
2019-02-11T22:06:26.688Z,16.07
2019-02-11T22:12:32.589Z,20.67
2019-02-11T22:18:38.886Z,21.73
2019-02-11T22:24:44.879Z,26.10
2019-02-11T22:30:50.734Z,19.60
2019-02-11T22:36:57.023Z,26.50
2019-02-11T22:43:03.055Z,22.23
2019-02-11T22:49:08.994Z,24.33
2019-02-11T22:55:15.358Z,20.77
2019-02-11T23:01:22.124Z,20.77
2019-02-11T23:07:28.980Z,19.23
2019-02-11T23:13:35.177Z,19.40
2019-02-11T23:19:40.931Z,24.50
2019-02-11T23:25:46.869Z,15.53
2019-02-11T23:31:52.808Z,19.37
2019-02-11T23:37:59.059Z,17.33
2019-02-11T23:44:04.994Z,20.97
2019-02-11T23:50:11.011Z,20.33
2019-02-11T23:56:17.009Z,19.67
